Time;durP1;ratioP1;P1;durP2;ratioP2;P2;SDS_P1;SDS_P2;PMS_P1;PMS_P2;Temp;Humidity;BMP_temperature;BMP_pressure;BME280_temperature;BME280_humidity;BME280_pressure;Samples;Min_cycle;Max_cycle;Signal;HPM_P1;HPM_P2
2023/10/12 00:00:33;;;;;;;9.15;4.95;;;21.10;99.90;;;;;;2083461;28;20028;-70
2023/10/12 00:01:35;;;;;;;15.00;4.85;;;21.20;99.90;;;;;;2082739;28;20087;-69
2023/10/12 00:02:37;;;;;;;9.10;4.43;;;21.20;99.90;;;;;;2082574;28;20029;-70
2023/10/12 00:03:38;;;;;;;12.90;5.57;;;21.20;99.90;;;;;;2081577;28;20642;-70
2023/10/12 00:04:43;;;;;;;9.32;4.80;;;21.20;99.90;;;;;;2081699;28;20043;-71
2023/10/12 00:05:45;;;;;;;13.30;4.55;;;21.20;99.90;;;;;;2080606;28;20024;-72
2023/10/12 00:06:47;;;;;;;7.60;4.50;;;21.20;99.90;;;;;;2083344;28;20143;-70
2023/10/12 00:07:49;;;;;;;11.70;4.72;;;21.20;99.90;;;;;;2081463;28;20029;-70
2023/10/12 00:08:50;;;;;;;10.50;5.05;;;21.20;99.90;;;;;;2077579;28;20161;-71
2023/10/12 00:10:02;;;;;;;13.43;4.68;;;21.10;99.90;;;;;;2085428;28;20021;-70
2023/10/12 00:11:06;;;;;;;7.60;4.40;;;21.10;99.90;;;;;;2083046;28;20029;-70
2023/10/12 00:12:09;;;;;;;8.63;4.00;;;21.20;99.90;;;;;;2082414;28;20115;-70
2023/10/12 00:13:11;;;;;;;14.73;4.75;;;21.20;99.90;;;;;;2083727;28;20029;-70
2023/10/12 00:14:14;;;;;;;9.73;4.15;;;21.10;99.90;;;;;;2083557;28;20022;-71
2023/10/12 00:16:21;;;;;;;10.10;4.55;;;21.20;99.90;;;;;;2084353;28;20416;-71
2023/10/12 00:17:28;;;;;;;9.55;4.65;;;21.20;99.90;;;;;;2084101;28;20021;-70
2023/10/12 00:18:31;;;;;;;10.88;4.32;;;21.20;99.90;;;;;;2084625;28;20036;-71
2023/10/12 00:19:31;;;;;;;7.63;4.57;;;21.20;99.90;;;;;;2084916;28;20048;-70
2023/10/12 00:20:35;;;;;;;8.73;4.53;;;21.20;99.90;;;;;;2084607;28;20033;-70
2023/10/12 00:21:35;;;;;;;8.88;4.50;;;21.10;99.90;;;;;;2082179;28;20045;-71
2023/10/12 00:22:37;;;;;;;11.35;4.85;;;21.20;99.90;;;;;;2082831;28;20025;-70
2023/10/12 00:23:37;;;;;;;12.43;5.07;;;21.20;99.90;;;;;;2082903;28;20021;-71
2023/10/12 00:24:38;;;;;;;7.85;4.47;;;21.10;99.90;;;;;;2081997;28;20108;-71
2023/10/12 00:25:54;;;;;;;8.23;4.32;;;21.20;99.90;;;;;;2082177;28;20129;-71
2023/10/12 00:26:54;;;;;;;10.80;4.50;;;21.20;99.90;;;;;;2081655;28;20048;-71
2023/10/12 00:27:55;;;;;;;8.48;4.43;;;21.10;99.90;;;;;;2083914;28;20040;-71
2023/10/12 00:28:56;;;;;;;10.18;4.78;;;21.10;99.90;;;;;;2085673;28;20094;-70
2023/10/12 00:29:56;;;;;;;8.15;4.22;;;21.10;99.90;;;;;;2081342;28;20025;-70
2023/10/12 00:30:57;;;;;;;8.38;4.43;;;21.10;99.90;;;;;;2083088;28;20172;-70
2023/10/12 00:31:59;;;;;;;10.13;4.50;;;21.10;99.90;;;;;;2082282;28;20472;-70
2023/10/12 00:33:00;;;;;;;8.80;4.65;;;21.10;99.90;;;;;;2084058;28;20025;-70
2023/10/12 00:34:02;;;;;;;9.18;5.03;;;21.10;99.90;;;;;;2081389;28;20037;-69
2023/10/12 00:35:04;;;;;;;8.52;4.78;;;21.10;99.90;;;;;;2082613;28;20028;-70
2023/10/12 00:36:11;;;;;;;9.30;3.92;;;21.10;99.90;;;;;;2082081;28;20025;-70
2023/10/12 00:37:13;;;;;;;6.15;4.07;;;21.10;99.90;;;;;;2082515;28;20087;-70
2023/10/12 00:38:17;;;;;;;12.35;5.60;;;21.10;99.90;;;;;;2082411;28;20016;-70
2023/10/12 00:39:20;;;;;;;10.07;5.03;;;21.10;99.90;;;;;;2085188;28;20029;-70
2023/10/12 00:40:31;;;;;;;15.13;4.35;;;21.10;99.90;;;;;;2077728;28;20026;-72
2023/10/12 00:41:35;;;;;;;9.10;4.65;;;21.10;99.90;;;;;;2083511;28;20025;-71
2023/10/12 00:42:37;;;;;;;7.10;4.68;;;21.00;99.90;;;;;;2082695;28;20460;-71
2023/10/12 00:43:49;;;;;;;8.45;4.93;;;21.10;99.90;;;;;;2082361;28;20036;-70
2023/10/12 00:44:52;;;;;;;14.00;5.03;;;21.00;99.90;;;;;;2082299;28;20029;-71
2023/10/12 00:45:53;;;;;;;10.13;4.75;;;21.00;99.90;;;;;;2083282;28;20037;-70
2023/10/12 00:48:07;;;;;;;9.68;5.18;;;21.00;99.90;;;;;;2084627;28;20029;-70
2023/10/12 00:50:16;;;;;;;9.55;5.13;;;21.00;99.90;;;;;;2084436;28;20033;-71
2023/10/12 00:51:17;;;;;;;15.80;4.75;;;21.00;99.90;;;;;;2084175;28;20120;-70
2023/10/12 00:52:26;;;;;;;8.38;5.60;;;21.00;99.90;;;;;;2083526;28;20543;-70
2023/10/12 00:53:33;;;;;;;9.32;4.90;;;21.00;99.90;;;;;;2083504;28;20044;-70
2023/10/12 00:55:38;;;;;;;15.27;5.85;;;21.00;99.90;;;;;;2083164;28;20037;-70
2023/10/12 00:56:43;;;;;;;16.50;5.10;;;21.00;99.90;;;;;;2085105;28;20060;-71
2023/10/12 00:57:44;;;;;;;11.13;5.05;;;21.00;99.90;;;;;;2082783;28;20297;-70
2023/10/12 00:58:45;;;;;;;10.07;5.15;;;20.90;99.90;;;;;;2082109;28;20033;-70
2023/10/12 00:59:47;;;;;;;10.85;5.22;;;20.90;99.90;;;;;;2082930;28;20060;-71
2023/10/12 01:01:00;;;;;;;11.07;5.20;;;20.90;99.90;;;;;;2082014;28;20561;-69
2023/10/12 01:02:02;;;;;;;8.13;5.25;;;20.90;99.90;;;;;;2080125;28;20029;-69
2023/10/12 01:04:22;;;;;;;13.27;5.03;;;20.90;99.90;;;;;;2084976;28;20036;-70
2023/10/12 01:05:24;;;;;;;10.40;4.88;;;20.80;99.90;;;;;;2083207;28;20040;-70
2023/10/12 01:07:25;;;;;;;16.15;5.80;;;20.80;99.90;;;;;;2082522;28;20029;-71
2023/10/12 01:08:30;;;;;;;8.85;4.80;;;20.80;99.90;;;;;;2083997;28;20480;-71
2023/10/12 01:09:39;;;;;;;10.13;4.90;;;20.80;99.90;;;;;;2083233;28;20030;-70
2023/10/12 01:10:41;;;;;;;13.25;4.78;;;20.80;99.90;;;;;;2083268;28;20030;-71
2023/10/12 01:11:43;;;;;;;8.93;4.28;;;20.80;99.90;;;;;;2082237;28;20086;-71
2023/10/12 01:12:45;;;;;;;9.35;5.20;;;20.80;99.90;;;;;;2082704;28;20032;-70
2023/10/12 01:14:03;;;;;;;9.90;5.13;;;20.80;99.90;;;;;;2084217;28;20514;-69
2023/10/12 01:15:08;;;;;;;10.75;4.60;;;20.70;99.90;;;;;;2082494;28;20079;-71
2023/10/12 01:16:20;;;;;;;8.88;4.60;;;20.70;99.90;;;;;;2081692;28;20772;-70
2023/10/12 01:17:29;;;;;;;8.35;4.97;;;20.70;99.90;;;;;;2081570;28;20041;-70
2023/10/12 01:18:30;;;;;;;8.60;5.20;;;20.70;99.90;;;;;;2084057;28;20060;-70
2023/10/12 01:19:44;;;;;;;7.22;4.35;;;20.70;99.90;;;;;;2082720;28;20040;-70
2023/10/12 01:20:45;;;;;;;8.80;4.68;;;20.70;99.90;;;;;;2082542;28;20070;-70
2023/10/12 01:21:46;;;;;;;9.73;4.97;;;20.70;99.90;;;;;;2083295;28;20083;-70
2023/10/12 01:22:47;;;;;;;13.23;5.03;;;20.70;99.90;;;;;;2084438;28;20029;-70
2023/10/12 01:23:51;;;;;;;11.15;4.70;;;20.70;99.90;;;;;;2080608;28;20029;-71
2023/10/12 01:26:03;;;;;;;8.27;4.82;;;20.60;99.90;;;;;;2082654;28;20026;-71
2023/10/12 01:27:04;;;;;;;10.63;5.05;;;20.60;99.90;;;;;;2080790;28;20264;-71
2023/10/12 01:28:12;;;;;;;15.70;5.40;;;20.60;99.90;;;;;;2078258;28;20036;-71
2023/10/12 01:29:19;;;;;;;9.63;4.53;;;20.60;99.90;;;;;;2085076;28;20123;-70
2023/10/12 01:30:22;;;;;;;7.63;4.50;;;20.60;99.90;;;;;;2083463;28;20025;-69
2023/10/12 01:31:30;;;;;;;12.30;5.07;;;20.60;99.90;;;;;;2085551;28;20541;-70
2023/10/12 01:32:36;;;;;;;8.73;4.97;;;20.60;99.90;;;;;;2082684;28;20029;-71
2023/10/12 01:33:41;;;;;;;9.60;5.00;;;20.50;99.90;;;;;;2082160;28;20987;-70
2023/10/12 01:34:56;;;;;;;8.15;4.88;;;20.60;99.90;;;;;;2082980;28;20120;-70
2023/10/12 01:35:57;;;;;;;11.00;4.68;;;20.50;99.90;;;;;;2083208;28;20029;-69
2023/10/12 01:36:58;;;;;;;10.95;5.40;;;20.50;99.90;;;;;;2081812;28;20025;-69
2023/10/12 01:38:01;;;;;;;10.77;4.70;;;20.50;99.90;;;;;;2083031;28;20028;-69
2023/10/12 01:39:12;;;;;;;9.55;5.13;;;20.50;99.90;;;;;;2085534;28;20017;-69
2023/10/12 01:40:18;;;;;;;11.60;5.22;;;20.50;99.90;;;;;;2081421;28;20025;-70
2023/10/12 01:41:25;;;;;;;10.80;5.07;;;20.50;99.90;;;;;;2083154;28;20017;-70
2023/10/12 01:43:43;;;;;;;13.40;5.55;;;20.40;99.90;;;;;;2082542;28;20753;-70
2023/10/12 01:44:44;;;;;;;8.43;5.65;;;20.40;99.90;;;;;;2082004;28;20056;-70
2023/10/12 01:45:47;;;;;;;14.57;5.53;;;20.50;99.90;;;;;;2080598;28;20038;-71
2023/10/12 01:46:49;;;;;;;8.85;5.25;;;20.40;99.90;;;;;;2083174;28;20827;-70
2023/10/12 01:48:12;;;;;;;11.75;5.93;;;20.40;99.90;;;;;;2084802;28;20092;-71
2023/10/12 01:49:14;;;;;;;11.60;5.85;;;20.40;99.90;;;;;;2083211;28;20228;-69
2023/10/12 01:50:14;;;;;;;13.73;5.97;;;20.30;99.90;;;;;;2082496;28;20427;-70
2023/10/12 01:51:24;;;;;;;10.07;6.03;;;20.40;99.90;;;;;;2082177;28;20049;-70
2023/10/12 01:52:24;;;;;;;13.52;5.53;;;20.30;99.90;;;;;;2082357;28;20029;-70
2023/10/12 01:53:31;;;;;;;10.27;5.57;;;20.30;99.90;;;;;;2081027;28;20017;-69
2023/10/12 01:54:32;;;;;;;9.93;5.75;;;20.30;99.90;;;;;;2083133;28;20117;-70
2023/10/12 01:55:32;;;;;;;9.82;5.18;;;20.30;99.90;;;;;;2083527;28;20087;-70
2023/10/12 01:56:33;;;;;;;12.75;6.57;;;20.30;99.90;;;;;;2079322;28;20025;-70
2023/10/12 01:57:44;;;;;;;8.63;5.82;;;20.20;99.90;;;;;;2081670;28;20518;-71
2023/10/12 01:58:48;;;;;;;10.85;5.63;;;20.20;99.90;;;;;;2083149;28;20074;-70
2023/10/12 01:59:49;;;;;;;10.45;5.68;;;20.20;99.90;;;;;;2081165;28;20031;-70
2023/10/12 02:00:53;;;;;;;10.48;6.07;;;20.20;99.90;;;;;;2081577;28;20030;-71
2023/10/12 02:02:06;;;;;;;11.60;6.47;;;20.20;99.90;;;;;;2082501;28;20025;-70
2023/10/12 02:03:18;;;;;;;11.07;5.75;;;20.20;99.90;;;;;;2082091;28;20036;-70
2023/10/12 02:04:21;;;;;;;8.52;6.07;;;20.10;99.90;;;;;;2083072;28;20025;-71
2023/10/12 02:05:25;;;;;;;14.23;5.90;;;20.10;99.90;;;;;;2081097;28;20025;-71
2023/10/12 02:06:28;;;;;;;14.52;6.28;;;20.10;99.90;;;;;;2083341;28;20083;-71
2023/10/12 02:07:28;;;;;;;9.23;5.90;;;20.10;99.90;;;;;;2082232;28;20017;-70
2023/10/12 02:08:39;;;;;;;10.32;7.38;;;20.10;99.90;;;;;;2081583;28;20082;-70
2023/10/12 02:09:41;;;;;;;17.63;8.32;;;20.10;99.90;;;;;;2085460;28;20112;-70
2023/10/12 02:10:54;;;;;;;14.38;8.35;;;20.10;99.90;;;;;;2097562;28;20781;-70
2023/10/12 02:11:55;;;;;;;13.02;8.63;;;20.00;99.90;;;;;;2093999;28;20118;-70
2023/10/12 02:12:55;;;;;;;14.30;8.50;;;20.10;99.90;;;;;;2081858;28;20025;-71
2023/10/12 02:14:01;;;;;;;13.18;9.00;;;20.00;99.90;;;;;;2085387;28;20033;-70
2023/10/12 02:15:04;;;;;;;16.92;9.60;;;20.00;99.90;;;;;;2084972;28;20029;-71
2023/10/12 02:16:12;;;;;;;23.50;10.82;;;19.90;99.90;;;;;;2081886;28;20115;-70
2023/10/12 02:17:13;;;;;;;14.50;9.43;;;19.90;99.90;;;;;;2082825;28;20095;-69
2023/10/12 02:18:15;;;;;;;13.98;9.48;;;19.90;99.90;;;;;;2083438;28;21623;-71
2023/10/12 02:19:30;;;;;;;15.73;10.07;;;19.80;99.90;;;;;;2082196;28;20025;-70
2023/10/12 02:20:34;;;;;;;15.32;10.02;;;19.80;99.90;;;;;;2083833;28;20028;-71
2023/10/12 02:21:38;;;;;;;17.77;10.52;;;19.80;99.90;;;;;;2083107;28;20017;-69
2023/10/12 02:22:38;;;;;;;16.55;10.38;;;19.80;99.90;;;;;;2081666;28;20068;-70
2023/10/12 02:27:32;;;;;;;15.15;11.40;;;19.70;99.90;;;;;;2083662;28;20029;-70
2023/10/12 02:28:37;;;;;;;18.63;11.52;;;19.70;99.90;;;;;;2079834;28;20133;-70
2023/10/12 02:29:39;;;;;;;17.70;11.73;;;19.70;99.90;;;;;;2082009;28;20124;-70
2023/10/12 02:30:40;;;;;;;14.85;10.30;;;19.70;99.90;;;;;;2082355;28;20431;-69
2023/10/12 02:31:55;;;;;;;15.68;10.60;;;19.70;99.90;;;;;;2082443;28;20029;-71
2023/10/12 02:33:05;;;;;;;13.07;10.63;;;19.70;99.90;;;;;;2082704;28;20037;-70
2023/10/12 02:34:15;;;;;;;16.02;11.55;;;19.60;99.90;;;;;;2081943;28;20032;-70
2023/10/12 02:35:19;;;;;;;19.08;11.88;;;19.60;99.90;;;;;;2082424;28;20092;-70
2023/10/12 02:36:20;;;;;;;19.30;12.23;;;19.60;99.90;;;;;;2083121;28;20449;-70
2023/10/12 02:37:21;;;;;;;18.20;11.85;;;19.60;99.90;;;;;;2082826;28;20483;-70
2023/10/12 02:38:27;;;;;;;19.63;13.00;;;19.60;99.90;;;;;;2082014;28;20059;-71
2023/10/12 02:39:34;;;;;;;15.13;11.48;;;19.60;99.90;;;;;;2083052;28;20071;-70
2023/10/12 02:40:35;;;;;;;17.73;11.90;;;19.60;99.90;;;;;;2083596;28;20500;-69
2023/10/12 02:41:36;;;;;;;17.98;13.23;;;19.60;99.90;;;;;;2081697;28;20050;-70
2023/10/12 02:42:41;;;;;;;19.30;13.15;;;19.50;99.90;;;;;;2081464;28;20032;-70
2023/10/12 02:43:50;;;;;;;17.13;11.82;;;19.60;99.90;;;;;;2081616;28;20021;-71
2023/10/12 02:45:03;;;;;;;21.90;12.38;;;19.50;99.90;;;;;;2083353;28;20021;-71
2023/10/12 02:46:11;;;;;;;18.38;12.27;;;19.50;99.90;;;;;;2083213;28;20107;-70
2023/10/12 02:47:12;;;;;;;18.98;11.73;;;19.50;99.90;;;;;;2082317;28;20116;-70
2023/10/12 02:48:23;;;;;;;17.35;12.68;;;19.50;99.90;;;;;;2081881;28;20758;-70
2023/10/12 02:49:24;;;;;;;18.77;13.13;;;19.50;99.90;;;;;;2084151;28;20032;-71
2023/10/12 02:50:29;;;;;;;15.55;11.65;;;19.50;99.90;;;;;;2079911;28;20028;-71
2023/10/12 02:51:34;;;;;;;18.17;12.65;;;19.50;99.90;;;;;;2081817;28;20029;-71
2023/10/12 02:52:35;;;;;;;20.58;12.45;;;19.50;99.90;;;;;;2080168;28;20118;-71
2023/10/12 02:53:39;;;;;;;19.48;12.05;;;19.50;99.90;;;;;;2080783;28;20066;-71
2023/10/12 02:54:55;;;;;;;18.20;12.30;;;19.40;99.90;;;;;;2082961;28;20374;-70
2023/10/12 02:56:01;;;;;;;18.17;12.13;;;19.40;99.90;;;;;;2085437;28;20515;-71
2023/10/12 02:57:04;;;;;;;17.80;11.98;;;19.40;99.90;;;;;;2084584;28;20040;-71
2023/10/12 02:58:07;;;;;;;15.55;12.07;;;19.40;99.90;;;;;;2081429;28;20039;-71
2023/10/12 02:59:08;;;;;;;17.10;11.27;;;19.40;99.90;;;;;;2082282;28;20361;-71
2023/10/12 03:00:12;;;;;;;20.70;11.80;;;19.30;99.90;;;;;;2083317;28;20071;-71
2023/10/12 03:01:18;;;;;;;14.98;10.55;;;19.40;99.90;;;;;;2081581;28;20025;-70
2023/10/12 03:02:32;;;;;;;18.38;10.93;;;19.40;99.90;;;;;;2086067;28;20476;-71
2023/10/12 03:03:36;;;;;;;15.13;10.55;;;19.30;99.90;;;;;;2084311;28;20029;-71
2023/10/12 03:04:39;;;;;;;19.60;12.52;;;19.30;99.90;;;;;;2083535;28;20028;-71
2023/10/12 03:05:47;;;;;;;15.15;11.13;;;19.30;99.90;;;;;;2081504;28;20026;-70
2023/10/12 03:07:03;;;;;;;21.02;11.95;;;19.30;99.90;;;;;;2084019;28;20029;-71
2023/10/12 03:08:06;;;;;;;16.98;12.10;;;19.30;99.90;;;;;;2080782;28;20036;-71
2023/10/12 03:10:26;;;;;;;15.32;11.70;;;19.20;99.90;;;;;;2083146;28;20476;-71
2023/10/12 03:11:31;;;;;;;14.00;11.38;;;19.20;99.90;;;;;;2083088;28;20029;-71
2023/10/12 03:12:35;;;;;;;21.05;12.65;;;19.20;99.90;;;;;;2081478;28;20017;-71
2023/10/12 03:13:38;;;;;;;15.30;11.27;;;19.10;99.90;;;;;;2082864;28;20083;-71
2023/10/12 03:14:40;;;;;;;19.33;12.20;;;19.10;99.90;;;;;;2082183;28;20079;-71
2023/10/12 03:15:42;;;;;;;17.63;12.32;;;19.20;99.90;;;;;;2080221;28;20461;-71
2023/10/12 03:16:43;;;;;;;15.88;11.30;;;19.10;99.90;;;;;;2081238;28;20040;-71
2023/10/12 03:17:54;;;;;;;17.52;12.15;;;19.10;99.90;;;;;;2081659;28;20029;-71
2023/10/12 03:19:00;;;;;;;16.50;11.68;;;19.10;99.90;;;;;;2081045;28;20061;-71
2023/10/12 03:20:20;;;;;;;17.65;11.57;;;19.10;99.90;;;;;;2075246;28;20034;-71
2023/10/12 03:21:23;;;;;;;19.55;13.18;;;19.10;99.90;;;;;;2078653;28;20026;-71
2023/10/12 03:22:25;;;;;;;17.65;12.23;;;19.10;99.90;;;;;;2084468;28;20032;-71
2023/10/12 03:23:27;;;;;;;15.45;12.02;;;19.10;99.90;;;;;;2084133;28;20895;-70
2023/10/12 03:24:43;;;;;;;14.07;10.98;;;19.10;99.90;;;;;;2083871;28;20711;-70
2023/10/12 03:25:46;;;;;;;17.15;13.00;;;19.10;99.90;;;;;;2082841;28;20033;-71
2023/10/12 03:27:10;;;;;;;20.40;13.13;;;19.10;99.90;;;;;;2080732;28;20029;-70
2023/10/12 03:28:13;;;;;;;17.20;12.18;;;19.10;99.90;;;;;;2081923;28;20028;-71
2023/10/12 03:30:17;;;;;;;15.07;11.65;;;19.10;99.90;;;;;;2097030;28;20567;-71
2023/10/12 03:31:26;;;;;;;14.63;11.20;;;19.10;99.90;;;;;;2082642;28;20024;-71
2023/10/12 03:32:26;;;;;;;14.68;12.13;;;19.10;99.90;;;;;;2082102;28;20487;-71
2023/10/12 03:33:28;;;;;;;15.45;12.25;;;19.00;99.90;;;;;;2083359;28;20443;-70
2023/10/12 03:34:35;;;;;;;15.77;11.85;;;19.00;99.90;;;;;;2081531;28;20026;-70
2023/10/12 03:35:58;;;;;;;16.83;11.68;;;19.10;99.90;;;;;;2081660;28;20040;-70
2023/10/12 03:37:03;;;;;;;18.67;10.80;;;19.00;99.90;;;;;;2083411;28;20032;-71
2023/10/12 03:38:12;;;;;;;13.55;10.40;;;19.00;99.90;;;;;;2082592;28;20075;-70
2023/10/12 03:42:52;;;;;;;14.40;10.57;;;18.90;99.90;;;;;;2083174;28;20029;-70
2023/10/12 03:44:05;;;;;;;17.27;10.32;;;18.90;99.90;;;;;;2082718;28;20071;-70
2023/10/12 03:45:23;;;;;;;13.98;9.15;;;19.00;99.90;;;;;;2082466;28;20048;-71
2023/10/12 03:46:28;;;;;;;10.85;8.80;;;19.00;99.90;;;;;;2081571;28;20052;-71
2023/10/12 03:47:30;;;;;;;17.92;9.45;;;19.00;99.90;;;;;;2084620;28;20028;-71
2023/10/12 03:51:01;;;;;;;13.60;8.32;;;19.00;99.90;;;;;;2083292;28;20022;-72
2023/10/12 03:52:13;;;;;;;15.35;9.57;;;19.00;99.90;;;;;;2084356;28;20115;-71
2023/10/12 03:53:16;;;;;;;15.48;8.85;;;18.90;99.90;;;;;;2084178;28;20021;-70
2023/10/12 03:55:50;;;;;;;16.42;9.88;;;18.90;99.90;;;;;;2069074;28;20045;-72
2023/10/12 03:56:50;;;;;;;10.95;9.27;;;18.90;99.90;;;;;;2077931;28;20040;-71
2023/10/12 03:58:00;;;;;;;15.05;8.93;;;18.90;99.90;;;;;;2082058;28;20111;-71
2023/10/12 03:59:06;;;;;;;17.08;10.98;;;18.90;99.90;;;;;;2083116;28;20029;-71
2023/10/12 04:02:14;;;;;;;18.98;10.63;;;18.90;99.90;;;;;;2097116;28;20122;-72
2023/10/12 04:03:59;;;;;;;15.65;11.65;;;18.80;99.90;;;;;;2083853;28;20036;-71
2023/10/12 04:05:16;;;;;;;16.77;9.43;;;18.90;99.90;;;;;;2083241;28;20526;-71
2023/10/12 04:06:23;;;;;;;14.77;10.18;;;18.90;99.90;;;;;;2082491;28;20630;-71
2023/10/12 04:07:37;;;;;;;10.75;8.77;;;18.90;99.90;;;;;;2082359;28;20559;-71
2023/10/12 04:08:39;;;;;;;14.30;10.32;;;18.90;99.90;;;;;;2083407;28;20060;-71
2023/10/12 04:09:43;;;;;;;14.68;10.20;;;18.90;99.90;;;;;;2084760;28;20100;-70
2023/10/12 04:11:51;;;;;;;14.15;11.15;;;18.90;99.90;;;;;;2083627;28;20037;-73
2023/10/12 04:13:07;;;;;;;20.98;10.57;;;18.90;99.90;;;;;;2084944;28;20052;-73
2023/10/12 04:14:43;;;;;;;15.43;10.00;;;18.90;99.90;;;;;;2082900;28;20112;-73
2023/10/12 04:18:32;;;;;;;14.48;10.43;;;18.70;99.90;;;;;;2083350;28;20037;-72
2023/10/12 04:19:34;;;;;;;18.92;10.73;;;18.70;99.90;;;;;;2083452;28;20029;-73
2023/10/12 04:20:39;;;;;;;13.63;9.15;;;18.70;99.90;;;;;;2084679;28;20096;-72
2023/10/12 04:21:56;;;;;;;15.57;11.20;;;18.70;99.90;;;;;;2083954;28;20028;-72
2023/10/12 04:25:49;;;;;;;13.35;10.55;;;18.60;99.90;;;;;;2084680;28;20029;-73
2023/10/12 04:27:11;;;;;;;18.88;10.55;;;18.70;99.90;;;;;;2081733;28;20133;-72
2023/10/12 04:28:22;;;;;;;13.55;10.55;;;18.60;99.90;;;;;;2082330;28;20029;-73
2023/10/12 04:29:23;;;;;;;16.60;10.93;;;18.60;99.90;;;;;;2093259;28;20626;-73
2023/10/12 04:30:32;;;;;;;15.27;10.93;;;18.60;99.90;;;;;;2091548;28;20241;-72
2023/10/12 04:31:49;;;;;;;17.77;10.70;;;18.60;99.90;;;;;;2082394;28;20024;-72
2023/10/12 04:33:57;;;;;;;13.52;10.63;;;18.50;99.90;;;;;;2083219;28;20049;-73
2023/10/12 04:34:57;;;;;;;14.57;10.30;;;18.50;99.90;;;;;;2083194;28;20094;-72
2023/10/12 04:37:09;;;;;;;16.70;11.17;;;18.50;99.90;;;;;;2082880;28;20044;-73
2023/10/12 04:38:23;;;;;;;19.67;10.93;;;18.50;99.90;;;;;;2084684;28;20341;-72
2023/10/12 04:39:27;;;;;;;15.65;10.93;;;18.40;99.90;;;;;;2086676;28;20021;-73
2023/10/12 04:40:37;;;;;;;16.60;11.05;;;18.40;99.90;;;;;;2085288;28;20036;-73
2023/10/12 04:41:39;;;;;;;19.23;12.13;;;18.40;99.90;;;;;;2084769;28;20036;-72
2023/10/12 04:42:45;;;;;;;14.23;11.23;;;18.40;99.90;;;;;;2084061;28;20021;-73
2023/10/12 04:44:06;;;;;;;17.75;10.90;;;18.50;99.90;;;;;;2083796;28;20179;-72
2023/10/12 04:45:23;;;;;;;15.02;10.80;;;18.40;99.90;;;;;;2082194;28;20592;-72
2023/10/12 04:47:25;;;;;;;17.58;10.95;;;18.40;99.90;;;;;;2081373;28;20022;-73
2023/10/12 04:48:31;;;;;;;16.10;11.32;;;18.40;99.90;;;;;;2080633;28;20101;-73
2023/10/12 04:49:54;;;;;;;14.05;10.25;;;18.40;99.90;;;;;;2082591;28;20108;-73
2023/10/12 04:50:59;;;;;;;12.57;9.95;;;18.40;99.90;;;;;;2083615;28;20037;-72
2023/10/12 04:52:16;;;;;;;14.65;10.13;;;18.40;99.90;;;;;;2074828;28;20034;-73
2023/10/12 04:53:18;;;;;;;11.68;9.93;;;18.40;99.90;;;;;;2086991;28;20024;-73
2023/10/12 04:54:25;;;;;;;15.20;9.40;;;18.40;99.90;;;;;;2083300;28;20100;-73
2023/10/12 04:55:28;;;;;;;14.30;10.45;;;18.40;99.90;;;;;;2082456;28;20025;-73
2023/10/12 04:56:35;;;;;;;12.95;9.90;;;18.50;99.90;;;;;;2083646;28;20030;-73
2023/10/12 04:57:39;;;;;;;16.10;10.40;;;18.40;99.90;;;;;;2082819;28;20044;-73
2023/10/12 04:58:56;;;;;;;21.77;10.25;;;18.40;99.90;;;;;;2082267;28;20052;-73
2023/10/12 05:00:10;;;;;;;11.80;7.88;;;18.40;99.90;;;;;;2083374;28;20115;-73
2023/10/12 05:01:24;;;;;;;14.93;9.95;;;18.40;99.90;;;;;;2083361;28;20618;-72
2023/10/12 05:02:43;;;;;;;14.98;11.48;;;18.50;99.90;;;;;;2082329;28;20057;-74
2023/10/12 05:04:04;;;;;;;13.68;10.63;;;18.40;99.90;;;;;;2084924;28;20521;-72
2023/10/12 05:06:09;;;;;;;14.55;10.18;;;18.40;99.90;;;;;;2082829;28;20037;-73
2023/10/12 05:08:13;;;;;;;14.57;10.60;;;18.40;99.90;;;;;;2081182;28;20034;-72
2023/10/12 05:09:18;;;;;;;13.52;10.68;;;18.40;99.90;;;;;;2084860;28;20033;-73
2023/10/12 05:10:26;;;;;;;13.32;9.75;;;18.40;99.90;;;;;;2086284;28;20486;-73
2023/10/12 05:11:28;;;;;;;11.60;9.20;;;18.40;99.90;;;;;;2084690;28;20067;-72
2023/10/12 05:12:28;;;;;;;14.18;10.45;;;18.40;99.90;;;;;;2082913;28;20634;-72
2023/10/12 05:13:29;;;;;;;14.13;9.85;;;18.40;99.90;;;;;;2083432;28;20029;-72
2023/10/12 05:14:31;;;;;;;13.98;9.90;;;18.40;99.90;;;;;;2082829;28;20044;-73
2023/10/12 05:15:42;;;;;;;14.27;10.82;;;18.40;99.90;;;;;;2085085;28;20057;-73
2023/10/12 05:16:43;;;;;;;14.40;10.38;;;18.40;99.90;;;;;;2085998;28;20456;-73
2023/10/12 05:17:43;;;;;;;16.05;10.48;;;18.30;99.90;;;;;;2082530;28;20021;-73
2023/10/12 05:18:47;;;;;;;14.13;9.77;;;18.40;99.90;;;;;;2081609;28;20033;-72
2023/10/12 05:19:47;;;;;;;15.27;9.95;;;18.40;99.90;;;;;;2083952;28;20658;-73
2023/10/12 05:20:48;;;;;;;14.80;10.32;;;18.40;99.90;;;;;;2085486;28;20550;-72
2023/10/12 05:21:49;;;;;;;12.95;10.35;;;18.30;99.90;;;;;;2078118;28;20142;-73
2023/10/12 05:22:49;;;;;;;11.10;9.52;;;18.30;99.90;;;;;;2084386;28;20108;-72
2023/10/12 05:23:50;;;;;;;12.63;9.98;;;18.30;99.90;;;;;;2082056;28;20066;-73
2023/10/12 05:24:52;;;;;;;15.60;10.68;;;18.30;99.90;;;;;;2081329;28;20118;-73
2023/10/12 05:26:57;;;;;;;11.15;9.70;;;18.20;99.90;;;;;;2081771;28;20037;-72
2023/10/12 05:28:14;;;;;;;13.93;10.50;;;18.30;99.90;;;;;;2083637;28;20033;-72
2023/10/12 05:30:26;;;;;;;12.10;9.67;;;18.20;99.90;;;;;;2082581;28;20029;-73
2023/10/12 05:31:28;;;;;;;15.30;9.70;;;18.20;99.90;;;;;;2083164;28;20291;-73
2023/10/12 05:32:42;;;;;;;17.73;11.05;;;18.20;99.90;;;;;;2081213;28;20057;-73
2023/10/12 05:33:43;;;;;;;17.88;10.77;;;18.20;99.90;;;;;;2083517;28;20654;-72
2023/10/12 05:34:46;;;;;;;15.77;10.13;;;18.20;99.90;;;;;;2085414;28;21671;-73
2023/10/12 05:35:52;;;;;;;12.18;9.75;;;18.20;99.90;;;;;;2084491;28;20072;-72
2023/10/12 05:36:53;;;;;;;15.07;10.18;;;18.20;99.90;;;;;;2082688;28;20516;-73
2023/10/12 05:37:56;;;;;;;13.05;9.52;;;18.10;99.90;;;;;;2083517;28;20403;-73
2023/10/12 05:39:12;;;;;;;14.27;10.43;;;18.10;99.90;;;;;;2082476;28;20021;-73
2023/10/12 05:40:14;;;;;;;15.50;9.65;;;18.20;99.90;;;;;;2081428;28;20032;-73
2023/10/12 05:42:39;;;;;;;11.48;9.50;;;18.10;99.90;;;;;;2082153;28;20029;-73
2023/10/12 05:43:40;;;;;;;15.50;9.43;;;18.10;99.90;;;;;;2082452;28;20029;-74
2023/10/12 05:44:42;;;;;;;16.90;10.15;;;18.10;99.90;;;;;;2080782;28;20039;-73
2023/10/12 05:45:44;;;;;;;16.23;10.18;;;18.10;99.90;;;;;;2082598;28;20029;-73
2023/10/12 05:46:50;;;;;;;12.70;9.23;;;18.10;99.90;;;;;;2082387;28;20036;-72
2023/10/12 05:47:54;;;;;;;17.08;10.70;;;18.10;99.90;;;;;;2083538;28;20083;-73
2023/10/12 05:48:55;;;;;;;12.27;8.68;;;18.10;99.90;;;;;;2080103;28;20478;-73
2023/10/12 05:49:58;;;;;;;14.80;9.00;;;18.10;99.90;;;;;;2081761;28;20560;-72
2023/10/12 05:50:59;;;;;;;13.00;9.80;;;18.10;99.90;;;;;;2081641;28;20030;-73
2023/10/12 05:52:04;;;;;;;13.93;9.73;;;18.10;99.90;;;;;;2082831;28;20120;-72
2023/10/12 05:53:07;;;;;;;12.68;8.63;;;18.10;99.90;;;;;;2073943;28;20035;-73
2023/10/12 05:54:07;;;;;;;15.45;9.30;;;18.10;99.90;;;;;;2080931;28;20036;-73
2023/10/12 05:55:21;;;;;;;12.63;9.75;;;18.10;99.90;;;;;;2081506;28;20531;-73
2023/10/12 05:56:23;;;;;;;16.48;8.88;;;18.10;99.90;;;;;;2080983;28;20826;-73
2023/10/12 05:57:29;;;;;;;14.75;8.82;;;18.10;99.90;;;;;;2082270;28;20036;-73
2023/10/12 05:58:32;;;;;;;13.00;9.40;;;18.10;99.90;;;;;;2081380;28;20506;-73
2023/10/12 05:59:33;;;;;;;13.50;9.15;;;18.10;99.90;;;;;;2081194;28;20020;-73
2023/10/12 06:00:36;;;;;;;11.93;8.60;;;18.10;99.90;;;;;;2084930;28;20105;-73
2023/10/12 06:01:37;;;;;;;12.02;9.18;;;18.10;99.90;;;;;;2080785;28;20036;-73
2023/10/12 06:02:38;;;;;;;13.90;8.98;;;18.10;99.90;;;;;;2082828;28;20025;-73
2023/10/12 06:03:46;;;;;;;14.45;8.88;;;18.10;99.90;;;;;;2083250;28;20372;-73
2023/10/12 06:04:47;;;;;;;14.57;9.25;;;18.10;99.90;;;;;;2081889;28;20027;-72
2023/10/12 06:05:51;;;;;;;13.15;8.70;;;18.10;99.90;;;;;;2083572;28;20021;-72
2023/10/12 06:06:52;;;;;;;11.68;7.40;;;18.10;99.90;;;;;;2080980;28;20392;-73
2023/10/12 06:08:00;;;;;;;14.15;9.13;;;18.10;99.90;;;;;;2083441;28;20557;-72
2023/10/12 06:09:20;;;;;;;11.25;8.40;;;18.10;99.90;;;;;;2082800;28;20052;-72
2023/10/12 06:10:23;;;;;;;14.38;8.45;;;18.10;99.90;;;;;;2082065;28;20021;-73
2023/10/12 06:11:29;;;;;;;12.35;9.30;;;18.00;99.90;;;;;;2082498;28;20102;-73
2023/10/12 06:12:29;;;;;;;14.07;8.80;;;18.00;99.90;;;;;;2082365;28;20090;-72
2023/10/12 06:13:41;;;;;;;15.18;9.63;;;18.10;99.90;;;;;;2084317;28;20040;-73
2023/10/12 06:14:52;;;;;;;13.07;9.15;;;18.00;99.90;;;;;;2080785;28;20029;-72
2023/10/12 06:15:53;;;;;;;12.60;8.38;;;18.10;99.90;;;;;;2082891;28;20116;-73
2023/10/12 06:16:55;;;;;;;12.07;9.07;;;18.00;99.90;;;;;;2082908;28;20021;-73